createdAt,value
2019-04-19T00:00:03.323Z,68.86
2019-04-19T00:00:42.619Z,68.67
2019-04-19T00:01:24.681Z,68.57
2019-04-19T00:02:09.312Z,68.76
2019-04-19T00:02:48.006Z,68.29
2019-04-19T00:03:31.059Z,68.38
2019-04-19T00:04:11.690Z,67.9
2019-04-19T00:04:52.776Z,68.57
2019-04-19T00:05:33.643Z,68.38
2019-04-19T00:06:15.044Z,68.38
2019-04-19T00:06:58.982Z,68.38
2019-04-19T00:07:32.082Z,68.48
2019-04-19T00:08:25.854Z,69.15
2019-04-19T00:09:08.841Z,68.38
2019-04-19T00:09:43.359Z,68.96
2019-04-19T00:10:24.777Z,68.86
2019-04-19T00:11:06.894Z,69.06
2019-04-19T00:11:41.817Z,68.67
2019-04-19T00:12:28.648Z,68.76
2019-04-19T00:13:01.575Z,69.15
2019-04-19T00:13:38.766Z,68.96
2019-04-19T00:14:19.023Z,69.06
2019-04-19T00:14:59.631Z,68.57
2019-04-19T00:15:41.375Z,69.06
2019-04-19T00:16:21.553Z,68.96
2019-04-19T00:17:01.855Z,68.96
2019-04-19T00:17:43.853Z,68.96
2019-04-19T00:18:24.505Z,68.67
2019-04-19T00:19:23.744Z,68.76
2019-04-19T00:20:00.958Z,68.76
2019-04-19T00:20:42.912Z,68.86
2019-04-19T00:21:22.839Z,69.34
2019-04-19T00:22:08.249Z,68.76
2019-04-19T00:22:43.831Z,68.96
2019-04-19T00:23:18.625Z,68.96
2019-04-19T00:23:51.925Z,68.86
2019-04-19T00:24:31.771Z,68.67
2019-04-19T00:25:11.378Z,68.67
2019-04-19T00:25:51.824Z,68.96
2019-04-19T00:26:33.735Z,68.67
2019-04-19T00:27:13.962Z,68.67
2019-04-19T00:27:58.218Z,68.76
2019-04-19T00:28:41.108Z,68.96
2019-04-19T00:29:21.874Z,68.96
2019-04-19T00:30:02.751Z,68.57
2019-04-19T00:30:45.113Z,68.29
2019-04-19T00:31:30.735Z,68.57
2019-04-19T00:32:11.526Z,68.48
2019-04-19T00:32:55.848Z,68.38
2019-04-19T00:33:28.164Z,68.38
2019-04-19T00:34:02.500Z,68.57
2019-04-19T00:34:42.225Z,68.57
2019-04-19T00:35:22.599Z,68.48
2019-04-19T00:36:04.980Z,68.48
2019-04-19T00:36:44.681Z,69.15
2019-04-19T00:37:24.795Z,68.76
2019-04-19T00:38:09.918Z,68.57
2019-04-19T00:38:57.065Z,68.67
2019-04-19T00:39:39.752Z,68.67
2019-04-19T00:40:26.201Z,68.19
2019-04-19T00:41:06.592Z,68.67
2019-04-19T00:41:45.038Z,68.38
2019-04-19T00:42:24.554Z,68.57
2019-04-19T00:43:02.738Z,68.09
2019-04-19T00:43:49.271Z,69.06
2019-04-19T00:44:31.721Z,68.38
2019-04-19T00:45:12.995Z,68.38
2019-04-19T00:45:44.675Z,68.96
2019-04-19T00:46:28.998Z,68.38
2019-04-19T00:47:11.815Z,68.57
2019-04-19T00:47:50.939Z,68.48
2019-04-19T00:48:45.725Z,68.19
2019-04-19T00:49:10.032Z,68.48
2019-04-19T00:49:51.105Z,68.48
2019-04-19T00:50:28.930Z,68.67
2019-04-19T00:51:10.872Z,68.48
2019-04-19T00:51:53.907Z,68.57
2019-04-19T00:52:41.899Z,68.57
2019-04-19T00:53:14.247Z,69.15
2019-04-19T00:53:55.525Z,69.06
2019-04-19T00:54:31.911Z,68.96
2019-04-19T00:55:12.382Z,68.76
2019-04-19T00:55:54.243Z,68.96
2019-04-19T00:56:37.095Z,68.76
2019-04-19T00:57:18.022Z,68.38
2019-04-19T00:57:51.862Z,69.06
2019-04-19T00:58:31.436Z,68.57
2019-04-19T00:59:12.661Z,68.96
2019-04-19T00:59:51.824Z,69.06
2019-04-19T01:00:34.916Z,69.15
2019-04-19T01:01:15.769Z,68.96
2019-04-19T01:01:56.447Z,68.38
2019-04-19T01:02:34.214Z,68.48
2019-04-19T01:03:15.980Z,68.38
2019-04-19T01:03:55.608Z,68.86
2019-04-19T01:04:36.363Z,68.96
2019-04-19T01:05:18.409Z,68.57
2019-04-19T01:06:01.811Z,68.29
2019-04-19T01:06:43.642Z,68.48
2019-04-19T01:07:22.787Z,68.57
2019-04-19T01:07:59.943Z,68.48
2019-04-19T01:08:50.680Z,68.67
2019-04-19T01:09:33.257Z,68.48
2019-04-19T01:10:14.608Z,68.57
2019-04-19T01:10:53.096Z,68.57
2019-04-19T01:11:33.610Z,68.57
2019-04-19T01:12:17.145Z,68.57
2019-04-19T01:12:57.856Z,68.57
2019-04-19T01:13:40.990Z,68.48
2019-04-19T01:14:16.880Z,68.48
2019-04-19T01:15:00.869Z,68.48
2019-04-19T01:15:35.100Z,68.57
2019-04-19T01:16:18.525Z,68.48
2019-04-19T01:17:05.075Z,68.38
2019-04-19T01:17:45.759Z,68.19
2019-04-19T01:18:22.833Z,68.38
2019-04-19T01:18:57.953Z,68.57
2019-04-19T01:19:32.109Z,68.38
2019-04-19T01:20:13.949Z,68.96
2019-04-19T01:20:54.187Z,68.96
2019-04-19T01:21:34.424Z,68.57
2019-04-19T01:22:19.862Z,68.96
2019-04-19T01:23:02.316Z,68.48
2019-04-19T01:23:42.127Z,68.57
2019-04-19T01:24:23.953Z,68.57
2019-04-19T01:24:58.368Z,68.57
2019-04-19T01:25:39.286Z,68.29
2019-04-19T01:26:19.919Z,68.57
2019-04-19T01:27:00.594Z,68.57
2019-04-19T01:27:42.247Z,68.48
2019-04-19T01:28:24.444Z,68.48
2019-04-19T01:29:07.589Z,68.48
2019-04-19T01:29:48.039Z,68.48
2019-04-19T01:30:30.296Z,68.38
2019-04-19T01:31:09.805Z,68.48
2019-04-19T01:31:48.590Z,68.57
2019-04-19T01:32:26.294Z,69.15
2019-04-19T01:33:07.133Z,68.96
2019-04-19T01:33:49.105Z,68.48
2019-04-19T01:34:30.605Z,68.48
2019-04-19T01:35:12.135Z,68.57
2019-04-19T01:35:52.852Z,68.19
2019-04-19T01:36:33.710Z,68.57
2019-04-19T01:37:16.093Z,68.76
2019-04-19T01:37:55.633Z,68.96
2019-04-19T01:38:40.752Z,68.48
2019-04-19T01:39:25.110Z,68.29
2019-04-19T01:40:09.243Z,68.29
2019-04-19T01:40:53.278Z,68.29
2019-04-19T01:41:28.197Z,68.48
2019-04-19T01:42:07.444Z,68.48
2019-04-19T01:42:52.859Z,68.48
2019-04-19T01:43:34.240Z,68.76
2019-04-19T01:44:19.779Z,68.57
2019-04-19T01:44:56.698Z,68.38
2019-04-19T01:45:41.662Z,68.48
2019-04-19T01:46:13.743Z,68.57
2019-04-19T01:46:55.686Z,68.67
2019-04-19T01:47:41.309Z,68.48
2019-04-19T01:48:24.441Z,68.57
2019-04-19T01:48:56.703Z,68.57
2019-04-19T01:49:42.725Z,68.57
2019-04-19T01:50:16.967Z,68.38
2019-04-19T01:51:01.939Z,68.38
2019-04-19T01:51:47.676Z,68.48
2019-04-19T01:52:36.289Z,68.57
2019-04-19T01:53:08.867Z,68.48
2019-04-19T01:53:44.316Z,68.57
2019-04-19T01:54:24.642Z,68.38
2019-04-19T01:55:01.371Z,68.48
2019-04-19T01:55:35.675Z,68.57
2019-04-19T01:56:16.932Z,68.38
2019-04-19T01:56:58.097Z,68.48
2019-04-19T01:57:34.442Z,68.57
2019-04-19T01:58:17.744Z,68.57
2019-04-19T01:58:59.192Z,68.29
2019-04-19T01:59:40.520Z,68.57
2019-04-19T02:00:24.132Z,68.57
2019-04-19T02:01:00.529Z,68.38
2019-04-19T02:01:39.593Z,68.29
2019-04-19T02:02:22.818Z,68.48
2019-04-19T02:03:03.332Z,68.38
2019-04-19T02:03:46.200Z,68.48
2019-04-19T02:04:26.614Z,68.57
2019-04-19T02:05:06.760Z,68.48
2019-04-19T02:05:48.818Z,68.57
2019-04-19T02:06:30.034Z,68.48
2019-04-19T02:07:11.104Z,68.57
2019-04-19T02:07:48.595Z,68.48
2019-04-19T02:08:27.032Z,68.29
2019-04-19T02:09:07.207Z,68.48
2019-04-19T02:10:02.473Z,68.57
2019-04-19T02:10:40.557Z,68.48
2019-04-19T02:11:23.090Z,68.48
2019-04-19T02:11:57.772Z,68.48
2019-04-19T02:12:41.712Z,68.38
2019-04-19T02:13:21.788Z,68.57
2019-04-19T02:14:03.463Z,68.29
2019-04-19T02:14:48.161Z,68.57
2019-04-19T02:15:26.649Z,68.48
2019-04-19T02:15:57.462Z,68.38
2019-04-19T02:16:36.683Z,68.57
2019-04-19T02:17:18.404Z,68.29
2019-04-19T02:17:58.872Z,68.38
2019-04-19T02:18:39.100Z,68.67
2019-04-19T02:19:23.144Z,68.57
2019-04-19T02:20:05.190Z,68.48
2019-04-19T02:20:45.606Z,68.38
2019-04-19T02:21:27.551Z,68.57
2019-04-19T02:22:09.859Z,68.57
2019-04-19T02:22:44.191Z,68.57
2019-04-19T02:23:24.423Z,68.57
2019-04-19T02:24:05.721Z,68.57
2019-04-19T02:24:50.866Z,68.48
2019-04-19T02:25:29.664Z,68.48
2019-04-19T02:26:10.494Z,68.57
2019-04-19T02:26:53.805Z,68.48
2019-04-19T02:27:33.782Z,68.29
2019-04-19T02:28:15.765Z,68.57
2019-04-19T02:28:51.364Z,68.57
2019-04-19T02:29:33.025Z,68.57
2019-04-19T02:30:22.161Z,68.57
2019-04-19T02:31:10.269Z,68.48
2019-04-19T02:31:53.476Z,68.57
2019-04-19T02:32:30.774Z,68.38
2019-04-19T02:33:19.719Z,68.57
2019-04-19T02:34:03.085Z,68.57
2019-04-19T02:34:39.009Z,68.57
2019-04-19T02:35:15.164Z,68.38
2019-04-19T02:36:07.866Z,68.57
2019-04-19T02:36:51.735Z,67.99
2019-04-19T02:37:43.430Z,68.48
2019-04-19T02:38:03.316Z,68.57
2019-04-19T02:39:28.512Z,68.48
2019-04-19T02:41:48.902Z,68.48
2019-04-19T02:42:23.703Z,68.48
2019-04-19T02:43:06.325Z,68.48
2019-04-19T02:43:43.035Z,68.57
2019-04-19T02:44:15.165Z,68.57
2019-04-19T02:44:58.618Z,68.25
2019-04-19T02:45:27.805Z,68.09
2019-04-19T02:46:32.266Z,68.48
2019-04-19T02:47:39.801Z,68.19
2019-04-19T02:48:15.834Z,68.38
2019-04-19T02:49:01.193Z,68.48
2019-04-19T02:49:42.700Z,68.57
2019-04-19T02:50:14.060Z,68.38
2019-04-19T02:51:43.420Z,68.48
2019-04-19T02:53:46.619Z,68.38
2019-04-19T02:54:24.889Z,68.48
2019-04-19T02:55:52.505Z,68.48
2019-04-19T02:56:44.253Z,68.38
2019-04-19T02:57:09.846Z,68.29
2019-04-19T02:57:47.603Z,68.38
2019-04-19T02:58:32.122Z,68.57
2019-04-19T02:59:20.532Z,68.38
2019-04-19T02:59:56.657Z,68.38
2019-04-19T03:00:35.997Z,68.57
2019-04-19T03:01:18.447Z,68.38
2019-04-19T03:02:13.747Z,68.38
2019-04-19T03:02:39.705Z,68.48
2019-04-19T03:04:04.730Z,68.48
2019-04-19T03:05:50.070Z,68.57
2019-04-19T03:06:25.039Z,68.57
2019-04-19T03:06:58.900Z,68.48
2019-04-19T03:07:34.707Z,68.38
2019-04-19T03:08:16.474Z,68.57
2019-04-19T03:08:56.540Z,68.25
2019-04-19T03:09:40.973Z,68.48
2019-04-19T03:10:21.494Z,68.48
2019-04-19T03:11:08.923Z,68.67
2019-04-19T03:11:55.903Z,68.38
2019-04-19T03:12:53.700Z,68.48
2019-04-19T03:13:16.969Z,68.48
2019-04-19T03:13:56.948Z,68.38
2019-04-19T03:14:38.718Z,68.57
2019-04-19T03:15:13.665Z,68.29
2019-04-19T03:15:56.938Z,68.57
2019-04-19T03:16:43.322Z,68.48
2019-04-19T03:17:23.057Z,68.38
2019-04-19T03:18:00.370Z,68.48
2019-04-19T03:18:42.095Z,68.96
2019-04-19T03:19:17.940Z,68.67
2019-04-19T03:20:05.025Z,68.38
2019-04-19T03:20:42.325Z,68.57
2019-04-19T03:21:24.941Z,68.57
2019-04-19T03:22:04.090Z,68.57
2019-04-19T03:22:49.252Z,68.38
2019-04-19T03:23:25.675Z,68.29
2019-04-19T03:24:04.664Z,68.29
2019-04-19T03:24:51.955Z,68.29
2019-04-19T03:25:27.446Z,68.38
2019-04-19T03:26:07.052Z,68.38
2019-04-19T03:26:47.981Z,68.38
2019-04-19T03:27:22.883Z,68.48
2019-04-19T03:28:06.933Z,68.48
2019-04-19T03:28:46.266Z,68.48
2019-04-19T03:29:27.465Z,68.38
2019-04-19T03:30:10.415Z,68.67
2019-04-19T03:31:07.973Z,68.48
2019-04-19T03:31:48.742Z,68.57
2019-04-19T03:33:09.126Z,68.48
2019-04-19T03:33:49.913Z,68.48
2019-04-19T03:34:40.443Z,68.57
2019-04-19T03:35:10.699Z,68.29
2019-04-19T03:35:48.926Z,68.57
2019-04-19T03:36:30.883Z,68.38
2019-04-19T03:36:59.814Z,68.48
2019-04-19T03:37:49.721Z,68.38
2019-04-19T03:38:29.319Z,68.38
2019-04-19T03:39:11.427Z,68.29
2019-04-19T03:39:50.634Z,68.29
2019-04-19T03:40:27.976Z,68.57
2019-04-19T03:41:08.981Z,68.29
2019-04-19T03:42:00.860Z,68.54
2019-04-19T03:42:34.751Z,68.48
2019-04-19T03:43:18.081Z,68.48
2019-04-19T03:43:51.629Z,68.48
2019-04-19T03:44:30.455Z,68.57
2019-04-19T03:45:12.644Z,68.29
2019-04-19T03:46:01.570Z,68.29
2019-04-19T03:46:45.685Z,68.57
2019-04-19T03:47:14.847Z,68.67
2019-04-19T03:48:04.204Z,68.38
2019-04-19T03:48:38.865Z,68.29
2019-04-19T03:49:30.151Z,68.48
2019-04-19T03:50:02.882Z,68.54
2019-04-19T03:50:36.908Z,68.48
2019-04-19T03:51:17.782Z,68.48
2019-04-19T03:52:08.002Z,68.48
2019-04-19T03:52:42.283Z,68.48
2019-04-19T03:53:30.706Z,68.57
2019-04-19T03:54:05.527Z,68.57
2019-04-19T03:54:43.766Z,68.48
2019-04-19T03:55:23.748Z,68.67
2019-04-19T03:56:09.161Z,68.57
2019-04-19T03:56:43.474Z,68.44
2019-04-19T03:57:22.873Z,68.44
2019-04-19T03:57:57.835Z,68.48
2019-04-19T03:58:32.661Z,68.48
2019-04-19T03:59:14.089Z,67.96
2019-04-19T03:59:54.284Z,68.25
2019-04-19T04:00:34.364Z,68.29
2019-04-19T04:01:15.020Z,68.38
2019-04-19T04:01:58.244Z,68.38
2019-04-19T04:02:41.408Z,68.29
2019-04-19T04:03:24.159Z,68.19
2019-04-19T04:04:06.185Z,68.29
2019-04-19T04:04:41.223Z,68.67
2019-04-19T04:05:21.384Z,68.67
2019-04-19T04:06:00.370Z,67.61
2019-04-19T04:06:44.008Z,67.71
2019-04-19T04:07:24.400Z,67.71
2019-04-19T04:08:08.978Z,67.61
2019-04-19T04:08:47.997Z,67.68
2019-04-19T04:09:31.509Z,67.71
2019-04-19T04:10:06.234Z,67.96
2019-04-19T04:10:47.377Z,67.68
2019-04-19T04:11:28.576Z,67.61
2019-04-19T04:12:19.449Z,67.71
2019-04-19T04:12:57.033Z,67.71
2019-04-19T04:13:38.948Z,67.96
2019-04-19T04:14:21.599Z,67.51
2019-04-19T04:15:04.336Z,67.71
2019-04-19T04:15:46.475Z,68.29
2019-04-19T04:16:23.849Z,67.8
2019-04-19T04:16:54.700Z,67.68
2019-04-19T04:17:33.528Z,67.77
2019-04-19T04:18:15.515Z,67.8
2019-04-19T04:18:55.477Z,67.61
2019-04-19T04:19:35.969Z,67.68
2019-04-19T04:20:17.737Z,67.86
2019-04-19T04:20:59.334Z,67.8
2019-04-19T04:21:43.309Z,67.77
2019-04-19T04:22:24.663Z,67.77
2019-04-19T04:23:03.415Z,67.51
2019-04-19T04:23:44.238Z,67.77
2019-04-19T04:24:29.094Z,67.8
2019-04-19T04:25:11.542Z,67.71
2019-04-19T04:25:52.192Z,67.61
2019-04-19T04:26:33.590Z,67.71
2019-04-19T04:27:12.156Z,68.29
2019-04-19T04:27:56.324Z,67.86
2019-04-19T04:28:39.270Z,67.77
2019-04-19T04:29:14.503Z,67.8
2019-04-19T04:29:59.828Z,67.71
2019-04-19T04:30:36.077Z,67.61
2019-04-19T04:31:19.186Z,67.68
2019-04-19T04:32:01.147Z,67.96
2019-04-19T04:32:42.715Z,67.32
2019-04-19T04:33:26.154Z,67.9
2019-04-19T04:34:00.248Z,67.32
2019-04-19T04:34:44.200Z,67.51
2019-04-19T04:35:30.178Z,68.09
2019-04-19T04:36:16.595Z,67.71
2019-04-19T04:36:49.281Z,68.15
2019-04-19T04:37:29.161Z,68.06
2019-04-19T04:38:05.567Z,67.61
2019-04-19T04:38:41.250Z,67.32
2019-04-19T04:39:19.558Z,67.29
2019-04-19T04:39:59.763Z,67.71
2019-04-19T04:40:40.176Z,67.77
2019-04-19T04:41:24.749Z,68.09
2019-04-19T04:42:11.026Z,67.51
2019-04-19T04:42:58.602Z,68.09
2019-04-19T04:43:34.176Z,67.32
2019-04-19T04:44:18.971Z,67.19
2019-04-19T04:45:14.785Z,67.32
2019-04-19T04:45:38.347Z,68.06
2019-04-19T04:46:26.693Z,67.86
2019-04-19T04:47:07.323Z,67.22
2019-04-19T04:47:42.928Z,67.13
2019-04-19T04:48:31.750Z,67.13
2019-04-19T04:49:10.162Z,67.22
2019-04-19T04:49:53.370Z,67.29
2019-04-19T04:50:36.798Z,67.48
2019-04-19T04:51:09.364Z,67.61
2019-04-19T04:51:47.726Z,67.48
2019-04-19T04:52:21.649Z,67.22
2019-04-19T04:52:54.422Z,67.61
2019-04-19T04:53:36.197Z,67.42
2019-04-19T04:54:16.528Z,67.22
2019-04-19T04:54:56.590Z,67.42
2019-04-19T04:55:44.703Z,67.19
2019-04-19T04:56:19.411Z,67.19
2019-04-19T04:57:07.130Z,67.38
2019-04-19T04:57:47.295Z,67.48
2019-04-19T04:58:26.683Z,67.29
2019-04-19T04:59:06.024Z,67.61
2019-04-19T04:59:46.545Z,67.61
2019-04-19T05:00:28.153Z,67.19
2019-04-19T05:01:08.959Z,67.38
2019-04-19T05:01:54.384Z,67.58
2019-04-19T05:02:40.795Z,67.58
2019-04-19T05:03:20.258Z,67.29
2019-04-19T05:04:01.616Z,67.51
2019-04-19T05:04:40.421Z,67.38
2019-04-19T05:05:24.421Z,67.29
2019-04-19T05:06:06.091Z,67.03
2019-04-19T05:06:54.141Z,66.84
2019-04-19T05:07:32.538Z,67.38
2019-04-19T05:08:13.799Z,67
2019-04-19T05:08:49.695Z,67.38
2019-04-19T05:09:31.640Z,67.29
2019-04-19T05:10:09.218Z,66.81
2019-04-19T05:10:46.780Z,67
2019-04-19T05:11:29.546Z,66.94
2019-04-19T05:12:17.916Z,67
2019-04-19T05:13:10.268Z,67.03
2019-04-19T05:13:37.885Z,66.91
2019-04-19T05:14:16.570Z,67.03
2019-04-19T05:14:52.130Z,67.1
2019-04-19T05:15:37.242Z,67.03
2019-04-19T05:16:26.253Z,67.19
2019-04-19T05:17:11.948Z,67.1
2019-04-19T05:17:45.776Z,66.91
2019-04-19T05:18:24.708Z,67
2019-04-19T05:18:57.677Z,66.71
2019-04-19T05:19:49.862Z,66.94
2019-04-19T05:20:22.237Z,66.94
2019-04-19T05:20:59.519Z,66.91
2019-04-19T05:21:43.991Z,66.84
2019-04-19T05:22:21.989Z,67.03
2019-04-19T05:23:02.589Z,67.03
2019-04-19T05:23:52.587Z,67.03
2019-04-19T05:24:31.390Z,67.1
2019-04-19T05:25:18.945Z,67
2019-04-19T05:25:50.561Z,67
2019-04-19T05:26:38.485Z,67.1
2019-04-19T05:27:14.609Z,67.22
2019-04-19T05:27:55.010Z,66.91
2019-04-19T05:28:33.149Z,67.1
2019-04-19T05:29:10.369Z,67
2019-04-19T05:29:43.275Z,67.1
2019-04-19T05:30:19.574Z,66.94
2019-04-19T05:31:03.894Z,67.1
2019-04-19T05:31:46.593Z,66.91
2019-04-19T05:32:26.915Z,67
2019-04-19T05:33:11.551Z,67
2019-04-19T05:33:51.287Z,67.03
2019-04-19T05:34:41.229Z,66.91
2019-04-19T05:35:15.313Z,67
2019-04-19T05:36:02.681Z,67
2019-04-19T05:36:42.693Z,67
2019-04-19T05:38:37.530Z,67
2019-04-19T05:39:12.025Z,67.58
2019-04-19T05:39:54.118Z,67.58
2019-04-19T05:40:32.434Z,67.58
2019-04-19T05:41:07.837Z,66.94
2019-04-19T05:41:52.713Z,67.58
2019-04-19T05:42:34.115Z,67
2019-04-19T05:43:21.042Z,67
2019-04-19T05:44:12.111Z,67
2019-04-19T05:44:38.343Z,67.1
2019-04-19T05:46:08.778Z,67
2019-04-19T05:46:45.723Z,66.71
2019-04-19T05:47:18.214Z,66.91
2019-04-19T05:47:54.339Z,67.58
2019-04-19T05:48:35.913Z,66.81
2019-04-19T05:49:19.256Z,66.81
2019-04-19T05:50:03.956Z,67.19
2019-04-19T05:50:44.014Z,67.29
2019-04-19T05:51:33.569Z,67.38
2019-04-19T05:52:07.268Z,67.29
2019-04-19T05:52:46.924Z,67.29
2019-04-19T05:53:22.056Z,67.29
2019-04-19T05:53:54.784Z,67.29
2019-04-19T05:54:32.413Z,66.91
2019-04-19T05:55:14.922Z,67
2019-04-19T05:55:54.343Z,67
2019-04-19T05:56:36.968Z,66.91
2019-04-19T05:57:35.718Z,67.29
2019-04-19T05:58:08.516Z,67.48
2019-04-19T05:58:47.965Z,67.19
2019-04-19T05:59:31.515Z,67.58
2019-04-19T06:00:06.339Z,67
2019-04-19T06:00:54.704Z,67
2019-04-19T06:01:35.955Z,67
2019-04-19T06:02:12.299Z,67.1
2019-04-19T06:02:52.156Z,67.58
2019-04-19T06:03:30.115Z,67.1
2019-04-19T06:04:20.814Z,67.38
2019-04-19T06:05:09.945Z,67.19
2019-04-19T06:05:48.340Z,66.71
2019-04-19T06:06:31.030Z,66.81
2019-04-19T06:07:08.139Z,67
2019-04-19T06:07:42.459Z,67.19
2019-04-19T06:08:18.130Z,67.1
2019-04-19T06:08:49.870Z,67.58
2019-04-19T06:09:30.646Z,67.38
2019-04-19T06:10:12.284Z,67.38
2019-04-19T06:10:56.571Z,67.58
2019-04-19T06:11:36.050Z,67.48
2019-04-19T06:12:17.662Z,67.19
2019-04-19T06:12:58.800Z,67.38
2019-04-19T06:13:36.298Z,67.48
2019-04-19T06:14:38.224Z,67.29
2019-04-19T06:15:17.278Z,67.48
2019-04-19T06:15:59.380Z,67.38
2019-04-19T06:16:34.891Z,67
2019-04-19T06:17:11.049Z,66.91
2019-04-19T06:17:56.049Z,67
2019-04-19T06:18:31.408Z,66.81
2019-04-19T06:19:16.471Z,66.91
2019-04-19T06:19:54.063Z,67
2019-04-19T06:20:37.912Z,66.81
2019-04-19T06:21:22.904Z,66.81
2019-04-19T06:21:56.668Z,66.81
2019-04-19T06:22:45.948Z,67
2019-04-19T06:23:23.458Z,67
2019-04-19T06:24:05.333Z,67.1
2019-04-19T06:24:42.182Z,66.91
2019-04-19T06:25:32.672Z,67.1
2019-04-19T06:26:26.268Z,67.19
2019-04-19T06:27:00.423Z,66.91
2019-04-19T06:27:35.093Z,67.1
2019-04-19T06:28:15.283Z,67.38
2019-04-19T06:29:37.861Z,67
2019-04-19T06:30:14.566Z,67.19
2019-04-19T06:30:50.162Z,66.71
2019-04-19T06:31:30.908Z,67
2019-04-19T06:32:20.570Z,66.81
2019-04-19T06:32:55.915Z,67.1
2019-04-19T06:33:31.384Z,66.91
2019-04-19T06:34:15.667Z,66.91
2019-04-19T06:34:53.529Z,66.81
2019-04-19T06:35:29.267Z,67
2019-04-19T06:36:04.416Z,66.91
2019-04-19T06:36:40.483Z,67.1
2019-04-19T06:37:25.079Z,67.1
2019-04-19T06:38:03.337Z,67.1
2019-04-19T06:38:42.777Z,66.81
2019-04-19T06:39:24.619Z,66.91
2019-04-19T06:40:14.196Z,67
2019-04-19T06:40:53.384Z,67
2019-04-19T06:41:28.420Z,66.81
2019-04-19T06:42:10.139Z,67.1
2019-04-19T06:42:54.602Z,66.61
2019-04-19T06:43:38.430Z,66.52
2019-04-19T06:44:18.337Z,66.71
2019-04-19T06:45:07.117Z,66.42
2019-04-19T06:45:49.009Z,66.84
2019-04-19T06:46:24.384Z,66.52
2019-04-19T06:47:02.466Z,67.19
2019-04-19T06:47:40.434Z,67.19
2019-04-19T06:48:19.613Z,66.81
2019-04-19T06:49:02.952Z,66.71
2019-04-19T06:49:36.395Z,66.81
2019-04-19T06:50:22.894Z,67.19
2019-04-19T06:51:01.940Z,66.71
2019-04-19T06:51:47.334Z,66.91
2019-04-19T06:52:24.721Z,66.61
2019-04-19T06:52:59.785Z,67.29
2019-04-19T06:53:48.148Z,67.1
2019-04-19T06:54:28.463Z,67
2019-04-19T06:55:08.114Z,67.29
2019-04-19T06:55:47.906Z,67
2019-04-19T06:56:29.989Z,66.91
2019-04-19T06:57:14.807Z,66.91
2019-04-19T06:57:53.041Z,67.1
2019-04-19T06:58:32.679Z,66.71
2019-04-19T06:59:15.732Z,67
2019-04-19T06:59:57.571Z,66.91
2019-04-19T07:00:40.883Z,66.61
2019-04-19T07:01:21.306Z,66.91
2019-04-19T07:01:53.912Z,67
2019-04-19T07:02:30.486Z,66.91
2019-04-19T07:03:12.652Z,67.19
2019-04-19T07:03:51.730Z,67
2019-04-19T07:04:32.500Z,66.91
2019-04-19T07:05:27.479Z,67
2019-04-19T07:06:08.681Z,67
2019-04-19T07:06:46.479Z,67.1
2019-04-19T07:07:33.038Z,66.71
2019-04-19T07:08:29.535Z,67.19
2019-04-19T07:09:07.190Z,66.91
2019-04-19T07:09:56.343Z,67.1
2019-04-19T07:10:24.692Z,66.91
2019-04-19T07:11:00.080Z,67.29
2019-04-19T07:11:45.889Z,67
2019-04-19T07:12:18.172Z,66.91
2019-04-19T07:13:00.503Z,67.1
2019-04-19T07:13:35.584Z,67.1
2019-04-19T07:14:10.122Z,67.1
2019-04-19T07:14:58.641Z,67
2019-04-19T07:15:55.005Z,67
2019-04-19T07:16:29.869Z,66.81
2019-04-19T07:17:05.410Z,66.81
2019-04-19T07:17:41.782Z,67.1
2019-04-19T07:18:24.491Z,67
2019-04-19T07:19:00.124Z,67.19
2019-04-19T07:19:49.693Z,66.81
2019-04-19T07:20:23.822Z,67.19
2019-04-19T07:21:11.470Z,67
2019-04-19T07:21:46.706Z,67
2019-04-19T07:22:25.607Z,66.91
2019-04-19T07:23:06.400Z,66.81
2019-04-19T07:23:53.049Z,66.71
2019-04-19T07:24:39.091Z,67.1
2019-04-19T07:25:18.148Z,67
2019-04-19T07:25:59.156Z,67.1
2019-04-19T07:26:37.375Z,66.71
2019-04-19T07:27:10.660Z,66.91
2019-04-19T07:27:49.616Z,66.81
2019-04-19T07:28:23.662Z,66.91
2019-04-19T07:28:59.958Z,67
2019-04-19T07:29:40.483Z,67
2019-04-19T07:30:20.962Z,67
2019-04-19T07:31:06.039Z,67
2019-04-19T07:31:43.039Z,67
2019-04-19T07:32:28.854Z,67.1
2019-04-19T07:33:09.262Z,67
2019-04-19T07:33:57.028Z,66.91
2019-04-19T07:34:47.625Z,66.91
2019-04-19T07:35:19.393Z,67.1
2019-04-19T07:36:06.158Z,66.91
2019-04-19T07:36:44.264Z,67.29
2019-04-19T07:37:23.342Z,67.48
2019-04-19T07:38:16.823Z,67.48
2019-04-19T07:38:53.220Z,67.29
2019-04-19T07:39:27.555Z,67.38
2019-04-19T07:40:11.078Z,67.19
2019-04-19T07:40:54.017Z,66.91
2019-04-19T07:41:26.557Z,67.38
2019-04-19T07:42:16.730Z,67.58
2019-04-19T07:42:50.366Z,67.48
2019-04-19T07:43:28.288Z,67.38
2019-04-19T07:44:05.909Z,67.58
2019-04-19T07:44:45.756Z,67.58
2019-04-19T07:45:24.614Z,67.38
2019-04-19T07:46:19.158Z,67.38
2019-04-19T07:46:55.466Z,67.38
2019-04-19T07:47:29.327Z,67.1
2019-04-19T07:48:07.934Z,67.29
2019-04-19T07:48:42.728Z,67.48
2019-04-19T07:49:23.312Z,67.29
2019-04-19T07:50:10.990Z,67.38
2019-04-19T07:50:53.477Z,67.68
2019-04-19T07:51:30.726Z,67.38
2019-04-19T07:52:14.333Z,67.38
2019-04-19T07:52:53.670Z,67.48
2019-04-19T07:53:31.941Z,67.38
2019-04-19T07:54:12.544Z,67.38
2019-04-19T07:54:54.818Z,67.58
2019-04-19T07:55:31.650Z,67.29
2019-04-19T07:57:09.713Z,67.38
2019-04-19T07:58:01.603Z,67.19
2019-04-19T07:59:17.795Z,67.19
2019-04-19T07:59:59.154Z,67.38
2019-04-19T08:01:22.181Z,67.38
2019-04-19T08:05:37.784Z,67.38
2019-04-19T08:07:38.889Z,68.06
2019-04-19T08:08:15.670Z,68.06
2019-04-19T08:08:55.645Z,68.06
2019-04-19T08:10:08.634Z,67.86
2019-04-19T08:11:46.240Z,67.86
2019-04-19T08:12:49.174Z,67.77
2019-04-19T08:13:39.584Z,67.86
2019-04-19T08:14:22.380Z,67.86
2019-04-19T08:14:57.355Z,68.06
2019-04-19T08:15:43.988Z,68.06
2019-04-19T08:16:09.344Z,67.96
2019-04-19T08:18:38.471Z,67.68
2019-04-19T08:27:30.609Z,67.68
2019-04-19T08:28:15.845Z,67.48
2019-04-19T08:28:56.196Z,68.06
2019-04-19T08:29:38.285Z,67.86
2019-04-19T08:30:14.168Z,68.06
2019-04-19T08:30:55.171Z,67.86
2019-04-19T08:31:31.967Z,68.06
2019-04-19T08:32:12.961Z,68.15
2019-04-19T08:32:53.515Z,67.77
2019-04-19T08:33:33.768Z,67.58
2019-04-19T08:34:17.570Z,68.06
2019-04-19T08:35:01.744Z,67.96
2019-04-19T08:35:39.653Z,67.77
2019-04-19T08:36:25.237Z,67.77
2019-04-19T08:37:00.364Z,67.77
2019-04-19T08:37:42.171Z,67.86
2019-04-19T08:38:22.681Z,67.96
2019-04-19T08:39:16.609Z,67.77
2019-04-19T08:39:53.715Z,67.86
2019-04-19T08:40:37.206Z,67.77
2019-04-19T08:41:13.461Z,67.68
2019-04-19T08:42:06.573Z,67.86
2019-04-19T08:42:38.425Z,67.68
2019-04-19T08:43:20.863Z,67.58
2019-04-19T08:43:59.005Z,67.58
2019-04-19T08:44:37.393Z,67.77
2019-04-19T08:45:11.811Z,67.58
2019-04-19T08:45:48.594Z,67.77
2019-04-19T08:46:28.382Z,67.86
2019-04-19T08:47:20.152Z,67.86
2019-04-19T08:47:59.115Z,67.86
2019-04-19T08:48:39.060Z,68.15
2019-04-19T08:49:19.889Z,67.68
2019-04-19T08:49:53.338Z,67.68
2019-04-19T08:50:34.846Z,67.77
2019-04-19T08:51:14.184Z,67.58
2019-04-19T08:51:55.856Z,68.06
2019-04-19T08:52:37.332Z,68.54
2019-04-19T08:53:31.674Z,68.25
2019-04-19T08:54:21.157Z,67.96
2019-04-19T08:54:57.407Z,67.96
2019-04-19T08:55:34.650Z,68.25
2019-04-19T08:56:11.104Z,67.68
2019-04-19T08:56:48.179Z,67.68
2019-04-19T08:57:23.949Z,67.77
2019-04-19T08:58:06.697Z,67.68
2019-04-19T08:58:54.224Z,67.68
2019-04-19T08:59:43.710Z,67.68
2019-04-19T09:00:32.350Z,67.77
2019-04-19T09:01:08.543Z,67.77
2019-04-19T09:01:44.287Z,68.06
2019-04-19T09:02:24.539Z,68.35
2019-04-19T09:02:59.911Z,68.25
2019-04-19T09:03:51.005Z,68.54
2019-04-19T09:04:30.052Z,68.15
2019-04-19T09:05:08.587Z,68.54
2019-04-19T09:05:47.675Z,68.25
2019-04-19T09:07:08.129Z,68.25
2019-04-19T09:07:33.813Z,68.25
2019-04-19T09:08:04.651Z,68.25
2019-04-19T09:08:32.360Z,68.15
2019-04-19T09:09:11.768Z,68.54
2019-04-19T09:10:11.874Z,68.06
2019-04-19T09:10:38.735Z,68.06
2019-04-19T09:11:15.917Z,68.25
2019-04-19T09:11:57.251Z,68.06
2019-04-19T09:12:34.170Z,68.15
2019-04-19T09:13:22.055Z,68.25
2019-04-19T09:14:00.165Z,68.35
2019-04-19T09:14:39.347Z,68.35
2019-04-19T09:15:19.968Z,67.96
2019-04-19T09:16:00.451Z,68.54
2019-04-19T09:16:40.763Z,68.54
2019-04-19T09:17:22.661Z,68.54
2019-04-19T09:18:24.719Z,68.54
2019-04-19T09:18:50.208Z,68.54
2019-04-19T09:19:34.517Z,68.44